Time;durP1;ratioP1;P1;durP2;ratioP2;P2;SDS_P1;SDS_P2;PMS_P1;PMS_P2;Temp;Humidity;BMP_temperature;BMP_pressure;BME280_temperature;BME280_humidity;BME280_pressure;Samples;Min_cycle;Max_cycle;Signal;HPM_P1;HPM_P2
2022/07/14 00:00:54;;;;;;;7.07;1.60;;;;;;;17.38;100.00;102132.28;5094514;28;20056;-70
2022/07/14 00:03:19;;;;;;;7.28;1.70;;;;;;;17.40;100.00;102136.72;5094496;28;20107;-70
2022/07/14 00:05:45;;;;;;;10.30;2.28;;;;;;;17.41;100.00;102134.97;5094492;28;20070;-69
2022/07/14 00:08:10;;;;;;;8.32;1.67;;;;;;;17.29;100.00;102141.06;5094466;28;20020;-69
2022/07/14 00:10:35;;;;;;;10.68;1.95;;;;;;;17.10;100.00;102145.31;5094399;28;20119;-70
2022/07/14 00:13:01;;;;;;;10.55;1.83;;;;;;;17.06;100.00;102146.16;5094440;28;20089;-70
2022/07/14 00:15:27;;;;;;;10.75;2.00;;;;;;;16.90;100.00;102142.44;5094297;28;20028;-70
2022/07/14 00:17:55;;;;;;;8.68;2.38;;;;;;;16.95;100.00;102148.72;5094236;28;20024;-70
2022/07/14 00:20:21;;;;;;;5.53;1.05;;;;;;;16.84;100.00;102157.41;5100629;28;20432;-69
2022/07/14 00:22:46;;;;;;;15.35;1.83;;;;;;;16.90;100.00;102145.09;5104084;28;20095;-69
2022/07/14 00:25:11;;;;;;;13.15;1.75;;;;;;;16.91;100.00;102141.56;5111197;28;20024;-70
2022/07/14 00:27:37;;;;;;;9.10;1.70;;;;;;;16.84;100.00;102146.78;5096488;28;20024;-70
2022/07/14 00:30:04;;;;;;;13.35;2.10;;;;;;;16.81;100.00;102137.91;5114364;28;20464;-69
2022/07/14 00:32:30;;;;;;;7.97;2.30;;;;;;;16.98;100.00;102127.47;5096113;28;20027;-71
2022/07/14 00:34:58;;;;;;;9.70;1.60;;;;;;;16.94;100.00;102134.53;5114065;28;20099;-70
2022/07/14 00:37:24;;;;;;;9.13;2.05;;;;;;;16.92;100.00;102130.94;5114295;28;20115;-70
2022/07/14 00:39:55;;;;;;;7.68;1.60;;;;;;;16.92;100.00;102138.94;5114163;28;20114;-70
2022/07/14 00:42:38;;;;;;;9.60;1.83;;;;;;;16.75;100.00;102145.78;5114281;28;20031;-70
2022/07/14 00:45:06;;;;;;;10.00;1.75;;;;;;;16.56;100.00;102140.22;5095936;28;20085;-70
2022/07/14 00:47:32;;;;;;;9.10;2.08;;;;;;;16.49;100.00;102152.56;5095762;28;20034;-70
2022/07/14 00:49:58;;;;;;;5.90;1.88;;;;;;;16.64;100.00;102140.34;5095809;28;20024;-69
2022/07/14 00:52:25;;;;;;;11.57;1.95;;;;;;;16.59;100.00;102131.41;5113917;28;20028;-70
2022/07/14 00:54:51;;;;;;;10.07;2.08;;;;;;;16.43;100.00;102133.88;5112211;28;20047;-70
2022/07/14 00:57:17;;;;;;;9.73;1.83;;;;;;;16.58;100.00;102142.94;5113930;28;20486;-70
2022/07/14 00:59:42;;;;;;;10.68;1.65;;;;;;;16.52;100.00;102143.72;5113846;28;20031;-70
2022/07/14 01:02:08;;;;;;;11.70;1.75;;;;;;;16.47;100.00;102135.69;5114179;28;20046;-70
2022/07/14 01:04:34;;;;;;;10.77;1.80;;;;;;;16.37;100.00;102143.53;5113863;28;20098;-70
2022/07/14 01:06:59;;;;;;;9.57;2.05;;;;;;;16.23;100.00;102135.38;5113816;28;20028;-70
2022/07/14 01:09:24;;;;;;;10.75;1.80;;;;;;;16.28;100.00;102139.88;5113785;28;20020;-70
2022/07/14 01:11:50;;;;;;;6.40;1.70;;;;;;;16.22;100.00;102149.53;5113728;28;20035;-70
2022/07/14 01:14:15;;;;;;;8.05;1.88;;;;;;;16.17;100.00;102144.16;5113648;28;20016;-70
2022/07/14 01:16:40;;;;;;;8.07;1.88;;;;;;;16.12;100.00;102144.06;5113544;28;20467;-70
2022/07/14 01:19:06;;;;;;;11.70;1.90;;;;;;;16.06;100.00;102144.00;5107300;28;20363;-70
2022/07/14 01:21:31;;;;;;;9.85;1.70;;;;;;;16.01;100.00;102143.03;5106956;28;20024;-70
2022/07/14 01:23:57;;;;;;;10.23;2.20;;;;;;;15.93;100.00;102142.91;5099944;28;20019;-70
2022/07/14 01:26:22;;;;;;;8.20;2.00;;;;;;;15.95;100.00;102142.94;5100075;28;20490;-70
2022/07/14 01:28:47;;;;;;;6.22;1.85;;;;;;;15.88;100.00;102138.41;5099549;28;20075;-70
2022/07/14 01:31:12;;;;;;;6.38;1.92;;;;;;;15.96;100.00;102150.03;5113531;28;20535;-70
2022/07/14 01:33:38;;;;;;;11.35;2.20;;;;;;;15.89;100.00;102150.81;5093759;28;20111;-70
2022/07/14 01:36:03;;;;;;;9.18;2.03;;;;;;;15.84;100.00;102143.69;5093208;28;20043;-70
2022/07/14 01:38:29;;;;;;;15.00;1.90;;;;;;;15.81;100.00;102142.72;5098934;28;20398;-70
2022/07/14 01:40:54;;;;;;;8.48;2.33;;;;;;;15.73;100.00;102149.66;5113423;28;20080;-70
2022/07/14 01:43:19;;;;;;;6.28;1.60;;;;;;;15.74;100.00;102149.66;5099628;28;20031;-70
2022/07/14 01:45:45;;;;;;;7.47;1.98;;;;;;;15.71;100.00;102146.97;5115095;28;20055;-70
2022/07/14 01:48:10;;;;;;;12.30;1.80;;;;;;;15.65;100.00;102152.16;5098341;28;20111;-70
2022/07/14 01:50:36;;;;;;;10.82;1.70;;;;;;;15.67;100.00;102147.78;5109435;28;20480;-70
2022/07/14 01:53:01;;;;;;;6.57;1.65;;;;;;;15.68;100.00;102145.16;5112024;28;20077;-70
2022/07/14 01:55:28;;;;;;;9.05;1.83;;;;;;;15.70;100.00;102147.84;5098855;28;20019;-70
2022/07/14 01:57:53;;;;;;;5.68;1.60;;;;;;;15.80;100.00;102140.94;5097027;28;20069;-70
2022/07/14 02:00:18;;;;;;;10.73;1.48;;;;;;;15.73;100.00;102139.91;5096922;28;20402;-70
2022/07/14 02:02:44;;;;;;;9.50;1.65;;;;;;;15.69;100.00;102135.41;5078751;28;20116;-70
2022/07/14 02:05:10;;;;;;;9.18;1.63;;;;;;;15.93;100.00;102134.94;5096799;28;20028;-70
2022/07/14 02:07:36;;;;;;;7.60;1.52;;;;;;;15.92;100.00;102134.94;5096726;28;20016;-70
2022/07/14 02:12:47;;;;;;;6.38;1.80;;;;;;;15.58;100.00;102129.06;5104811;28;20049;-70
2022/07/14 02:15:12;;;;;;;11.05;2.15;;;;;;;15.44;100.00;102127.06;5117233;28;20028;-69
2022/07/14 02:17:37;;;;;;;9.48;1.90;;;;;;;15.33;100.00;102120.69;5117084;28;20063;-69
2022/07/14 02:20:03;;;;;;;11.35;1.77;;;;;;;15.24;100.00;102118.75;5103881;28;20460;-69
2022/07/14 02:22:29;;;;;;;9.82;1.98;;;;;;;15.28;100.00;102122.38;5108727;28;20024;-69
2022/07/14 02:24:54;;;;;;;6.63;2.00;;;;;;;15.20;100.00;102122.22;5111325;28;20027;-69
2022/07/14 02:27:20;;;;;;;8.52;2.03;;;;;;;15.12;100.00;102122.06;5116838;28;20076;-69
2022/07/14 02:29:45;;;;;;;12.82;1.92;;;;;;;15.02;100.00;102122.78;5116716;28;20509;-70
2022/07/14 02:32:11;;;;;;;10.98;1.80;;;;;;;14.99;100.00;102113.00;5116826;28;20023;-70
2022/07/14 02:34:36;;;;;;;7.47;1.80;;;;;;;14.92;100.00;102115.50;5116610;28;20016;-70
2022/07/14 02:37:01;;;;;;;7.40;1.88;;;;;;;14.92;100.00;102105.81;5109239;28;20446;-69
2022/07/14 02:39:27;;;;;;;4.47;1.50;;;;;;;15.02;100.00;102117.47;5096075;28;20447;-69
2022/07/14 02:41:52;;;;;;;19.10;2.10;;;;;;;14.95;100.00;102111.16;5078004;28;20024;-70
2022/07/14 02:44:17;;;;;;;5.10;1.60;;;;;;;14.87;100.00;102111.88;5096061;28;20024;-69
2022/07/14 02:46:43;;;;;;;10.73;1.85;;;;;;;14.87;100.00;102117.16;5096108;28;20024;-70
2022/07/14 02:49:08;;;;;;;8.48;2.38;;;;;;;14.80;100.00;102117.06;5091611;28;20096;-70
2022/07/14 02:51:34;;;;;;;4.15;2.10;;;;;;;14.72;100.00;102115.13;5109599;28;20020;-70
2022/07/14 02:54:00;;;;;;;8.70;2.00;;;;;;;14.75;100.00;102118.72;5097210;28;20102;-69
2022/07/14 02:56:25;;;;;;;9.73;1.80;;;;;;;14.73;100.00;102115.16;5095919;28;20098;-70
2022/07/14 02:58:51;;;;;;;5.85;1.80;;;;;;;14.73;100.00;102115.16;5095788;28;20020;-69
2022/07/14 03:01:17;;;;;;;7.32;1.63;;;;;;;14.78;100.00;102113.47;5095762;28;20016;-70
2022/07/14 03:03:42;;;;;;;7.88;1.52;;;;;;;14.79;100.00;102125.88;5095817;28;20028;-70
2022/07/14 03:06:16;;;;;;;7.30;1.52;;;;;;;14.80;100.00;102117.06;5096083;28;20138;-69
2022/07/14 03:08:42;;;;;;;6.60;1.92;;;;;;;14.79;100.00;102120.56;5095614;28;20224;-70
2022/07/14 03:11:07;;;;;;;7.90;2.38;;;;;;;14.76;100.00;102124.91;5095695;28;20047;-69
2022/07/14 03:13:33;;;;;;;10.52;1.98;;;;;;;14.83;100.00;102110.94;5095502;28;20428;-69
2022/07/14 03:15:59;;;;;;;7.22;1.75;;;;;;;14.83;100.00;102114.47;5077456;28;20024;-70
2022/07/14 03:18:25;;;;;;;8.23;2.00;;;;;;;14.79;100.00;102115.28;5098095;28;20023;-69
2022/07/14 03:20:52;;;;;;;9.75;2.13;;;;;;;14.73;100.00;102117.81;5103181;28;20455;-70
2022/07/14 03:23:17;;;;;;;7.18;2.20;;;;;;;14.64;100.00;102120.28;5101763;28;20078;-69
2022/07/14 03:25:43;;;;;;;5.72;2.35;;;;;;;14.63;100.00;102118.50;5115772;28;20056;-69
2022/07/14 03:28:10;;;;;;;6.43;2.00;;;;;;;14.59;100.00;102116.59;5115592;28;20019;-70
2022/07/14 03:30:35;;;;;;;6.82;1.85;;;;;;;14.50;100.00;102118.22;5115753;28;20019;-69
2022/07/14 03:33:00;;;;;;;3.28;1.60;;;;;;;14.62;100.00;102111.38;5115515;28;20022;-69
2022/07/14 03:35:26;;;;;;;7.93;1.80;;;;;;;14.66;100.00;102103.56;5115502;28;20023;-70
2022/07/14 03:37:51;;;;;;;8.40;1.73;;;;;;;14.66;100.00;102102.66;5115347;28;20043;-69
2022/07/14 03:40:17;;;;;;;7.82;2.15;;;;;;;14.79;100.00;102099.38;5115297;28;20376;-69
2022/07/14 03:42:42;;;;;;;8.23;1.98;;;;;;;14.70;100.00;102091.25;5097067;28;20023;-69
2022/07/14 03:45:08;;;;;;;5.32;1.90;;;;;;;14.67;100.00;102101.78;5115399;28;20023;-69
2022/07/14 03:47:33;;;;;;;10.30;2.40;;;;;;;14.69;100.00;102100.09;5115298;28;20051;-69
2022/07/14 03:49:58;;;;;;;5.82;2.00;;;;;;;14.57;100.00;102098.03;5096750;28;20046;-69
2022/07/14 03:52:24;;;;;;;6.90;2.00;;;;;;;14.50;100.00;102089.06;5115183;28;20087;-69
2022/07/14 03:54:49;;;;;;;8.73;2.40;;;;;;;14.50;100.00;102086.41;5113098;28;20732;-69
2022/07/14 03:57:15;;;;;;;7.20;2.60;;;;;;;14.57;100.00;102092.75;5115139;28;20371;-69
2022/07/14 03:59:40;;;;;;;6.10;2.28;;;;;;;14.59;100.00;102098.06;5114867;28;20051;-70
2022/07/14 04:02:10;;;;;;;6.82;2.38;;;;;;;14.50;100.00;102101.41;5115038;28;20066;-69
2022/07/14 04:04:36;;;;;;;7.78;2.50;;;;;;;14.60;100.00;102099.84;5114937;28;20035;-69
2022/07/14 04:07:02;;;;;;;6.47;2.75;;;;;;;14.56;100.00;102108.59;5114765;28;20467;-70
2022/07/14 04:09:27;;;;;;;11.98;3.10;;;;;;;14.53;100.00;102100.56;5114222;28;20110;-69
2022/07/14 04:11:53;;;;;;;6.93;2.67;;;;;;;14.54;100.00;102102.38;5114749;28;20029;-69
2022/07/14 04:14:18;;;;;;;6.70;2.47;;;;;;;14.56;100.00;102098.00;5114765;28;20023;-70
2022/07/14 04:16:43;;;;;;;7.32;2.63;;;;;;;14.62;100.00;102103.41;5114638;28;20471;-69
2022/07/14 04:19:09;;;;;;;11.00;2.25;;;;;;;14.67;100.00;102101.78;5107655;28;20486;-70
2022/07/14 04:21:36;;;;;;;7.25;2.40;;;;;;;14.65;100.00;102096.47;5107625;28;20023;-70
2022/07/14 04:24:01;;;;;;;5.80;2.40;;;;;;;14.64;100.00;102085.84;5083318;28;20034;-69
2022/07/14 04:26:27;;;;;;;8.07;2.70;;;;;;;14.71;100.00;102090.38;5114469;28;20023;-69
2022/07/14 04:28:52;;;;;;;10.30;2.17;;;;;;;14.75;100.00;102096.66;5114518;28;20479;-69
2022/07/14 04:31:18;;;;;;;6.10;2.13;;;;;;;14.81;100.00;102089.72;5114362;28;20027;-70
2022/07/14 04:33:43;;;;;;;6.13;2.00;;;;;;;14.93;100.00;102096.97;5114378;28;20020;-70
2022/07/14 04:36:09;;;;;;;7.20;2.67;;;;;;;14.91;100.00;102087.25;5100614;28;20024;-70
2022/07/14 04:38:34;;;;;;;8.02;2.28;;;;;;;15.06;100.00;102092.81;5093816;28;20043;-70
2022/07/14 04:41:00;;;;;;;9.05;2.00;;;;;;;15.12;100.00;102086.72;5107286;28;20027;-69
2022/07/14 04:43:26;;;;;;;6.85;1.73;;;;;;;15.22;100.00;102088.69;5096029;28;20019;-68
2022/07/14 04:45:52;;;;;;;6.50;1.95;;;;;;;15.33;100.00;102088.88;5101015;28;20101;-71
2022/07/14 04:48:17;;;;;;;9.75;1.73;;;;;;;15.40;100.00;102082.78;5093758;28;20382;-70
2022/07/14 04:53:27;;;;;;;6.57;1.98;;;;;;;15.41;100.00;102092.53;5093706;28;20058;-70
2022/07/14 04:55:56;;;;;;;9.88;2.97;;;;;;;15.50;100.00;102079.44;5094959;28;20020;-70
2022/07/14 04:58:25;;;;;;;6.38;2.00;;;;;;;15.37;100.00;102076.53;5075531;28;20028;-69
2022/07/14 05:00:51;;;;;;;12.05;2.22;;;;;;;15.44;100.00;102079.31;5093476;28;20028;-69
2022/07/14 05:03:16;;;;;;;4.22;1.83;;;;;;;15.45;100.00;102080.19;5093507;28;20031;-69
2022/07/14 05:05:42;;;;;;;9.25;2.00;;;;;;;15.35;100.00;102076.50;5093441;28;20112;-70
2022/07/14 05:08:07;;;;;;;11.45;2.60;;;;;;;15.49;100.00;102088.25;5075404;28;20031;-70
2022/07/14 05:10:33;;;;;;;12.13;2.53;;;;;;;15.48;100.00;102086.47;5093390;28;20033;-70
2022/07/14 05:12:58;;;;;;;9.43;2.50;;;;;;;15.39;100.00;102096.03;5093497;28;20077;-70
2022/07/14 05:15:23;;;;;;;9.98;2.58;;;;;;;15.40;100.00;102092.53;5093358;28;20020;-70
2022/07/14 05:17:49;;;;;;;4.82;1.92;;;;;;;15.48;100.00;102097.06;5093305;28;20024;-70
2022/07/14 05:20:14;;;;;;;13.43;2.53;;;;;;;15.45;100.00;102099.69;5097685;28;20118;-70
2022/07/14 05:22:41;;;;;;;14.93;3.15;;;;;;;15.62;100.00;102104.34;5104070;28;20102;-70
2022/07/14 05:25:11;;;;;;;6.22;2.03;;;;;;;15.71;100.00;102100.94;5109630;28;20036;-70
2022/07/14 05:27:37;;;;;;;14.50;2.85;;;;;;;15.76;100.00;102099.25;5113668;28;20030;-70
2022/07/14 05:30:04;;;;;;;5.55;2.00;;;;;;;15.77;100.00;102104.59;5113513;28;20031;-70
2022/07/14 05:32:30;;;;;;;8.88;2.03;;;;;;;15.82;100.00;102102.06;5113521;28;20104;-70
2022/07/14 05:34:56;;;;;;;7.57;1.95;;;;;;;16.07;100.00;102097.97;5113367;28;20024;-69
2022/07/14 05:37:22;;;;;;;10.90;2.83;;;;;;;16.26;100.00;102109.75;5095255;28;20024;-70
2022/07/14 05:39:47;;;;;;;6.45;1.80;;;;;;;16.43;100.00;102119.72;5113354;28;20133;-70
2022/07/14 05:42:12;;;;;;;9.88;2.28;;;;;;;16.45;100.00;102116.19;5095290;28;20412;-70
2022/07/14 05:44:38;;;;;;;11.90;1.98;;;;;;;16.43;100.00;102112.63;5113558;28;20106;-70
2022/07/14 05:47:03;;;;;;;8.45;2.15;;;;;;;16.49;100.00;102117.13;5095245;28;20017;-70
2022/07/14 05:49:29;;;;;;;4.07;1.63;;;;;;;16.49;100.00;102123.34;5097422;28;20105;-70
2022/07/14 05:51:54;;;;;;;13.48;2.67;;;;;;;16.42;100.00;102120.59;5093448;28;20072;-69
2022/07/14 05:54:19;;;;;;;10.98;2.60;;;;;;;16.28;100.00;102112.44;5073406;28;20210;-70
2022/07/14 05:56:45;;;;;;;6.65;2.20;;;;;;;16.37;100.00;102109.00;5073114;28;20028;-70
2022/07/14 05:59:10;;;;;;;7.05;1.98;;;;;;;16.33;100.00;102110.72;5072811;28;20028;-70
2022/07/14 06:01:35;;;;;;;11.52;2.50;;;;;;;16.41;100.00;102109.03;5072932;28;20032;-69
2022/07/14 06:04:01;;;;;;;5.43;2.05;;;;;;;16.48;100.00;102116.25;5074974;28;20112;-71
2022/07/14 06:06:26;;;;;;;7.68;1.98;;;;;;;16.58;100.00;102111.94;5093237;28;20023;-70
2022/07/14 06:08:52;;;;;;;14.52;2.58;;;;;;;16.56;100.00;102112.78;5077405;28;20039;-69
2022/07/14 06:11:18;;;;;;;7.25;2.10;;;;;;;16.62;100.00;102111.09;5071595;28;20052;-70
2022/07/14 06:13:45;;;;;;;16.27;2.30;;;;;;;16.73;100.00;102111.22;5072792;28;20137;-70
2022/07/14 06:16:11;;;;;;;9.32;1.70;;;;;;;16.81;100.00;102117.50;5073257;28;20024;-70
2022/07/14 06:18:37;;;;;;;6.10;1.88;;;;;;;16.81;100.00;102111.31;5075750;28;20039;-70
2022/07/14 06:21:07;;;;;;;7.30;1.35;;;;;;;16.68;100.00;102107.59;5082070;28;20379;-70
2022/07/14 06:23:32;;;;;;;12.52;1.70;;;;;;;16.79;100.00;102105.06;5076074;28;20107;-70
2022/07/14 06:25:58;;;;;;;8.73;1.45;;;;;;;16.93;100.00;102108.81;5072690;28;20540;-71
2022/07/14 06:28:23;;;;;;;8.45;1.60;;;;;;;16.85;100.00;102108.69;5075786;28;20423;-70
2022/07/14 06:30:48;;;;;;;9.75;1.90;;;;;;;16.80;100.00;102101.53;5092914;28;20021;-70
2022/07/14 06:33:14;;;;;;;10.48;2.38;;;;;;;16.85;100.00;102100.72;5079865;28;20107;-68
2022/07/14 06:35:40;;;;;;;10.60;2.13;;;;;;;16.95;100.00;102096.41;5086239;28;20085;-70
2022/07/14 06:38:06;;;;;;;5.97;1.63;;;;;;;16.91;100.00;102094.59;5082929;28;20027;-69
2022/07/14 06:40:31;;;;;;;9.05;1.40;;;;;;;16.95;100.00;102087.56;5095082;28;20437;-70
2022/07/14 06:42:57;;;;;;;5.80;1.42;;;;;;;17.03;100.00;102070.78;5079821;28;20033;-70
2022/07/14 06:45:22;;;;;;;7.03;1.70;;;;;;;17.15;100.00;102064.69;5074870;28;20078;-70
2022/07/14 06:47:48;;;;;;;7.75;1.60;;;;;;;17.29;100.00;102063.94;5092937;28;20074;-70
2022/07/14 06:50:13;;;;;;;4.72;1.15;;;;;;;17.35;100.00;102064.00;5086814;28;20146;-70
2022/07/14 06:52:39;;;;;;;8.23;1.73;;;;;;;17.44;100.00;102057.84;5076361;28;20174;-70
2022/07/14 06:55:05;;;;;;;13.20;1.80;;;;;;;17.55;100.00;102055.25;5095730;28;20040;-71
2022/07/14 06:57:30;;;;;;;8.75;1.63;;;;;;;17.66;100.00;102061.53;5096234;28;20028;-70
2022/07/14 06:59:56;;;;;;;7.63;1.55;;;;;;;17.75;100.00;102064.25;5096340;28;20024;-68
2022/07/14 07:02:21;;;;;;;8.40;1.55;;;;;;;17.72;100.00;102058.03;5096147;28;20166;-71
2022/07/14 07:06:43;;;;;;;6.35;1.35;;;;;;;17.78;100.00;102055.41;5095857;28;20464;-69
2022/07/14 07:07:34;;;;;;;7.15;1.50;;;;;;;17.87;100.00;102048.34;5114531;28;20497;-70
2022/07/14 07:09:59;;;;;;;9.85;1.83;;;;;;;17.95;100.00;102047.56;5104337;28;20059;-70
2022/07/14 07:12:24;;;;;;;6.15;1.10;;;;;;;18.00;100.00;102053.78;5077905;28;20054;-70
2022/07/14 07:14:50;;;;;;;5.35;1.33;;;;;;;18.09;100.00;102058.28;5095956;28;20036;-70
2022/07/14 07:17:15;;;;;;;9.38;1.55;;;;;;;18.14;100.00;102057.41;5095638;28;20023;-70
2022/07/14 07:19:40;;;;;;;6.57;1.98;;;;;;;18.16;100.00;102066.31;5098038;28;20028;-69
2022/07/14 07:22:06;;;;;;;6.40;1.92;;;;;;;18.20;100.00;102067.19;5091550;28;20066;-70
2022/07/14 07:24:31;;;;;;;9.93;1.40;;;;;;;18.27;100.00;102069.03;5088879;28;20027;-70
2022/07/14 07:26:56;;;;;;;8.07;1.30;;;;;;;18.37;100.00;102053.94;5115801;28;20054;-70
2022/07/14 07:29:22;;;;;;;7.70;1.73;;;;;;;18.44;100.00;102062.84;5115889;28;20019;-70
2022/07/14 07:31:47;;;;;;;5.07;1.10;;;;;;;18.47;100.00;102063.75;5115920;28;20040;-70
2022/07/14 07:34:12;;;;;;;8.25;1.40;;;;;;;18.48;100.00;102064.66;5115734;28;20030;-71
2022/07/14 07:36:39;;;;;;;8.00;1.38;;;;;;;18.46;100.00;102069.97;5102344;28;20080;-71
2022/07/14 07:39:04;;;;;;;7.07;1.50;;;;;;;18.49;100.00;102064.66;5105395;28;20102;-70
2022/07/14 07:41:29;;;;;;;6.55;1.42;;;;;;;18.58;100.00;102069.09;5095325;28;20103;-69
2022/07/14 07:43:55;;;;;;;7.20;1.50;;;;;;;18.64;100.00;102068.25;5094613;28;20023;-70
2022/07/14 07:46:20;;;;;;;6.38;1.30;;;;;;;18.68;100.00;102075.38;5095367;28;20035;-70
2022/07/14 07:48:45;;;;;;;8.30;1.58;;;;;;;18.73;100.00;102081.59;5095580;28;20379;-70
2022/07/14 07:51:11;;;;;;;8.20;1.52;;;;;;;18.86;100.00;102086.06;5094841;28;20019;-69
2022/07/14 07:53:36;;;;;;;4.90;1.35;;;;;;;18.97;100.00;102077.22;5095294;28;20048;-70
2022/07/14 07:56:02;;;;;;;6.57;1.38;;;;;;;19.06;100.00;102085.25;5099953;28;20027;-70
2022/07/14 07:58:28;;;;;;;7.80;1.45;;;;;;;18.94;100.00;102082.56;5115277;28;20028;-70
2022/07/14 08:00:53;;;;;;;6.88;1.48;;;;;;;18.99;100.00;102075.44;5115397;28;20387;-71
2022/07/14 08:03:18;;;;;;;4.45;1.20;;;;;;;19.17;100.00;102075.47;5105678;28;20463;-70
2022/07/14 08:05:44;;;;;;;5.72;1.20;;;;;;;19.31;100.00;102074.59;5095021;28;20032;-70
2022/07/14 08:08:10;;;;;;;5.65;1.40;;;;;;;19.35;100.00;102066.56;5094899;28;20024;-70
2022/07/14 08:10:39;;;;;;;3.35;1.25;;;;;;;19.30;100.00;102064.78;5097798;28;20024;-70
2022/07/14 08:13:05;;;;;;;8.27;1.05;;;;;;;19.38;100.00;102065.69;5115423;28;20038;-70
2022/07/14 08:15:30;;;;;;;8.80;1.38;;;;;;;19.46;100.00;102066.56;5101666;28;20102;-70
2022/07/14 08:17:56;;;;;;;8.73;1.77;;;;;;;19.61;100.00;102065.66;5115264;28;20463;-70
2022/07/14 08:20:21;;;;;;;5.95;1.25;;;;;;;19.36;100.00;102052.34;5102556;28;20027;-70
2022/07/14 08:22:47;;;;;;;5.97;0.93;;;;;;;19.60;96.60;102046.97;5096792;28;20143;-71
2022/07/14 08:25:12;;;;;;;4.35;1.10;;;;;;;19.53;95.29;102051.44;5111206;28;20020;-71
2022/07/14 08:27:38;;;;;;;5.65;1.10;;;;;;;19.67;94.77;102049.63;5094587;28;20050;-71
2022/07/14 08:30:04;;;;;;;2.55;0.70;;;;;;;19.81;94.09;102040.75;5098172;28;20076;-71
2022/07/14 08:32:38;;;;;;;5.25;1.02;;;;;;;19.87;92.74;102046.03;5104824;28;20028;-70
2022/07/14 08:35:05;;;;;;;4.53;0.95;;;;;;;19.69;90.41;102058.50;5094607;28;20047;-70
2022/07/14 08:37:31;;;;;;;3.50;0.68;;;;;;;19.82;89.13;102048.75;5076349;28;20051;-70
2022/07/14 08:39:56;;;;;;;5.32;1.15;;;;;;;20.02;85.68;102055.78;5094446;28;20467;-70
2022/07/14 08:42:22;;;;;;;4.60;1.20;;;;;;;20.12;87.34;102052.22;5094582;28;20020;-70
2022/07/14 08:44:47;;;;;;;7.10;1.05;;;;;;;20.27;90.84;102056.59;5080210;28;20370;-70
2022/07/14 08:47:13;;;;;;;5.47;1.17;;;;;;;20.31;89.39;102062.84;5114571;28;20035;-70
2022/07/14 08:49:38;;;;;;;9.70;1.33;;;;;;;20.44;92.14;102060.97;5096541;28;20026;-70
2022/07/14 08:52:04;;;;;;;4.25;1.10;;;;;;;20.47;95.85;102047.59;5076102;28;20399;-70
2022/07/14 08:54:31;;;;;;;5.53;1.13;;;;;;;20.54;95.19;102058.25;5099591;28;20116;-69
2022/07/14 08:56:56;;;;;;;9.27;1.73;;;;;;;20.58;94.48;102050.19;5114553;28;20027;-71
2022/07/14 08:59:21;;;;;;;8.00;1.35;;;;;;;20.63;92.75;102043.03;5114628;28;20099;-70
2022/07/14 09:01:50;;;;;;;5.97;1.08;;;;;;;20.78;95.03;102047.44;5114327;28;20077;-70
2022/07/14 09:04:15;;;;;;;6.00;1.05;;;;;;;20.93;96.17;102043.75;5114153;28;20088;-71
2022/07/14 09:06:52;;;;;;;39.17;3.00;;;;;;;21.11;93.17;102040.94;5103111;28;20024;-71
2022/07/14 09:09:34;;;;;;;7.38;1.70;;;;;;;21.20;88.66;102045.31;5113588;28;20027;-70
2022/07/14 09:12:05;;;;;;;8.50;1.50;;;;;;;21.15;84.45;102048.06;5100818;28;20107;-70
2022/07/14 09:17:18;;;;;;;5.18;1.60;;;;;;;21.49;82.49;102058.47;5100622;28;20043;-70
2022/07/14 09:20:10;;;;;;;11.73;1.95;;;;;;;21.79;81.36;102051.03;5102211;28;20055;-70
2022/07/14 09:22:38;;;;;;;2.60;1.27;;;;;;;21.83;77.87;102052.78;5093360;28;20023;-71
2022/07/14 09:25:08;;;;;;;7.15;1.65;;;;;;;21.92;77.62;102050.91;5109653;28;20051;-70
2022/07/14 09:27:33;;;;;;;6.20;1.92;;;;;;;21.83;76.55;102052.78;5114136;28;20024;-70
2022/07/14 09:29:59;;;;;;;6.63;1.65;;;;;;;22.01;76.99;102058.84;5097706;28;20028;-71
2022/07/14 09:32:42;;;;;;;3.20;0.98;;;;;;;22.13;73.93;102044.41;5093472;28;20028;-70
2022/07/14 09:35:08;;;;;;;;;;;;;;;22.20;78.88;102048.78;5094091;28;20028;-70
2022/07/14 09:37:37;;;;;;;7.93;1.40;;;;;;;22.34;75.43;102049.53;5093411;28;19953;-69
2022/07/14 09:40:03;;;;;;;6.50;1.40;;;;;;;22.34;76.91;102048.59;5093915;28;20035;-70
2022/07/14 09:42:50;;;;;;;8.20;1.38;;;;;;;22.50;79.56;102046.63;5093715;28;20404;-70
2022/07/14 09:45:21;;;;;;;6.82;1.00;;;;;;;22.61;76.46;102049.16;5101122;28;20023;-71
2022/07/14 09:47:58;;;;;;;4.78;1.15;;;;;;;22.66;76.71;102050.84;5114145;28;20024;-71
2022/07/14 09:50:41;;;;;;;8.73;2.13;;;;;;;22.67;77.32;102043.72;5113985;28;20059;-71
2022/07/14 09:53:32;;;;;;;7.70;1.40;;;;;;;22.55;71.42;102048.31;5113236;28;20020;-70
2022/07/14 09:56:06;;;;;;;5.80;1.30;;;;;;;22.64;77.49;102046.41;5111994;28;20027;-70
2022/07/14 09:58:40;;;;;;;3.78;1.23;;;;;;;22.70;76.57;102040.97;5093509;28;20020;-70
2022/07/14 10:01:11;;;;;;;4.13;1.35;;;;;;;22.70;76.46;102043.66;5093210;28;20126;-70
2022/07/14 10:03:42;;;;;;;4.75;1.50;;;;;;;22.99;76.30;102051.28;5093300;28;20039;-70
2022/07/14 10:06:08;;;;;;;3.72;1.27;;;;;;;23.15;75.03;102054.59;5093584;28;20460;-70
2022/07/14 10:08:35;;;;;;;10.13;1.52;;;;;;;23.18;77.56;102056.34;5097326;28;20027;-70
2022/07/14 10:11:03;;;;;;;9.43;2.47;;;;;;;23.17;78.62;102046.50;5096992;28;20026;-71
2022/07/14 10:13:29;;;;;;;5.25;1.30;;;;;;;23.44;77.51;102055.91;5097301;28;20107;-69
2022/07/14 10:15:56;;;;;;;7.28;1.52;;;;;;;23.55;73.80;102059.28;5116653;28;20019;-70
2022/07/14 10:18:23;;;;;;;13.60;3.00;;;;;;;23.64;76.16;102058.22;5107326;28;20035;-70
2022/07/14 10:20:54;;;;;;;8.68;1.65;;;;;;;23.45;78.89;102051.41;5104819;28;20020;-69
2022/07/14 10:23:21;;;;;;;7.63;1.38;;;;;;;23.40;87.30;102052.38;5103596;28;20027;-71
2022/07/14 10:25:48;;;;;;;9.90;1.15;;;;;;;23.39;80.55;102049.72;5117330;28;20058;-70
2022/07/14 10:28:15;;;;;;;6.13;1.60;;;;;;;23.20;79.12;102041.97;5117102;28;20379;-72
2022/07/14 10:31:05;;;;;;;4.90;1.25;;;;;;;23.37;80.75;102046.16;5108435;28;20020;-70
2022/07/14 10:33:40;;;;;;;4.18;0.95;;;;;;;23.54;83.59;102051.25;5096775;28;20061;-70
2022/07/14 10:36:18;;;;;;;5.20;0.85;;;;;;;23.62;78.27;102043.06;5096475;28;20030;-71
2022/07/14 10:39:08;;;;;;;5.78;1.40;;;;;;;23.78;82.02;102049.91;5104562;28;20028;-71
2022/07/14 10:42:01;;;;;;;5.80;1.30;;;;;;;23.68;77.75;102045.63;5116973;28;20379;-70
2022/07/14 10:44:31;;;;;;;4.87;0.80;;;;;;;23.90;82.96;102048.78;5116895;28;20515;-70
2022/07/14 10:47:08;;;;;;;4.40;0.93;;;;;;;24.14;79.05;102052.78;5116737;28;20070;-70
2022/07/14 10:50:06;;;;;;;3.60;0.68;;;;;;;24.18;73.46;102049.09;5116703;28;20036;-70
2022/07/14 10:52:36;;;;;;;7.32;1.10;;;;;;;24.31;75.72;102054.22;5092727;28;20097;-71
2022/07/14 10:55:19;;;;;;;7.57;1.50;;;;;;;24.48;72.76;102060.13;5097320;28;20055;-71
2022/07/14 10:58:00;;;;;;;3.85;1.00;;;;;;;24.21;70.93;102054.44;5098470;28;20028;-71
2022/07/14 11:00:41;;;;;;;6.72;0.90;;;;;;;24.15;73.61;102051.88;5096225;28;20020;-70
2022/07/14 11:03:32;;;;;;;9.40;1.85;;;;;;;24.39;69.71;102053.16;5104631;28;20046;-71
2022/07/14 11:06:02;;;;;;;5.53;0.85;;;;;;;24.44;66.89;102050.34;5091052;28;20108;-71
2022/07/14 11:08:28;;;;;;;6.72;1.17;;;;;;;24.41;65.70;102045.03;5103657;28;20024;-71
2022/07/14 11:10:55;;;;;;;3.65;1.05;;;;;;;24.45;67.19;102060.19;5095922;28;20016;-71
2022/07/14 11:13:21;;;;;;;6.10;1.08;;;;;;;24.50;66.44;102050.22;5096085;28;20032;-69
2022/07/14 11:16:03;;;;;;;4.18;0.95;;;;;;;24.53;71.64;102055.53;5095659;28;20039;-70
2022/07/14 11:18:37;;;;;;;2.90;0.73;;;;;;;24.77;66.45;102053.25;5108260;28;20034;-70
2022/07/14 11:21:20;;;;;;;5.45;1.02;;;;;;;24.91;65.91;102061.84;5105104;28;20034;-70
2022/07/14 11:23:46;;;;;;;;;;;;;;;24.93;64.95;102064.50;5097768;28;20426;-70
2022/07/14 11:26:41;;;;;;;1.70;0.67;;;;;;;24.99;67.02;102063.50;5095694;28;19908;-71
2022/07/14 11:29:08;;;;;;;5.18;0.95;;;;;;;25.04;63.90;102066.94;5104758;28;20040;-71